Time;durP1;ratioP1;P1;durP2;ratioP2;P2;SDS_P1;SDS_P2;PMS_P1;PMS_P2;Temp;Humidity;BMP_temperature;BMP_pressure;BME280_temperature;BME280_humidity;BME280_pressure;Samples;Min_cycle;Max_cycle;Signal;HPM_P1;HPM_P2
2021/06/22 00:01:07;;;;;;;2.33;0.90;;;;;;;-148.58;100.00;55229.56;5035057;28;20487;-63
2021/06/22 00:03:32;;;;;;;1.20;0.90;;;;;;;-148.58;100.00;55229.56;5035223;28;20041;-63
2021/06/22 00:05:58;;;;;;;1.35;1.13;;;;;;;-148.58;100.00;55229.56;5035062;28;20061;-62
2021/06/22 00:08:23;;;;;;;0.98;0.70;;;;;;;-148.58;100.00;55229.56;5035296;28;20028;-62
2021/06/22 00:10:49;;;;;;;1.13;0.90;;;;;;;-148.58;100.00;55229.56;5034933;28;20021;-63
2021/06/22 00:13:15;;;;;;;1.08;0.75;;;;;;;-148.58;100.00;55229.56;5035148;28;20033;-63
2021/06/22 00:15:40;;;;;;;1.52;0.80;;;;;;;-148.58;100.00;55229.56;5035043;28;20017;-62
2021/06/22 00:18:05;;;;;;;1.23;1.00;;;;;;;-148.58;100.00;55229.56;5035336;28;20108;-62
2021/06/22 00:20:31;;;;;;;0.80;0.80;;;;;;;-148.58;100.00;55229.56;5035062;28;20022;-63
2021/06/22 00:22:56;;;;;;;1.23;1.08;;;;;;;-148.58;100.00;55229.56;5034720;28;20463;-62
2021/06/22 00:25:23;;;;;;;1.75;1.20;;;;;;;-148.58;100.00;55229.56;5034821;28;20068;-62
2021/06/22 00:27:49;;;;;;;1.67;1.17;;;;;;;-148.58;100.00;55229.56;5034771;28;20029;-62
2021/06/22 00:30:15;;;;;;;0.73;0.60;;;;;;;-148.58;100.00;55229.56;5034894;28;20027;-63
2021/06/22 00:32:41;;;;;;;0.70;0.70;;;;;;;-148.58;100.00;55229.56;5034652;28;20026;-62
2021/06/22 00:35:07;;;;;;;1.27;0.70;;;;;;;-148.58;100.00;55229.56;5034501;28;20029;-62
2021/06/22 00:37:33;;;;;;;1.42;0.80;;;;;;;-148.58;100.00;55229.56;5034725;28;20057;-62
2021/06/22 00:39:58;;;;;;;1.25;1.05;;;;;;;-148.58;100.00;55229.56;5034506;28;20068;-62
2021/06/22 00:42:24;;;;;;;0.60;0.60;;;;;;;-148.58;100.00;55229.56;5034634;28;20022;-62
2021/06/22 00:44:57;;;;;;;1.83;0.88;;;;;;;-148.58;100.00;55229.56;5034339;28;20036;-62
2021/06/22 00:47:22;;;;;;;0.55;0.55;;;;;;;-148.58;100.00;55229.56;5034498;28;20040;-62
2021/06/22 00:49:49;;;;;;;2.03;1.00;;;;;;;-148.58;100.00;55229.56;5034259;28;20029;-62
2021/06/22 00:52:18;;;;;;;0.75;0.75;;;;;;;-148.58;100.00;55229.56;5034408;28;20572;-62
2021/06/22 00:54:44;;;;;;;1.77;0.82;;;;;;;-148.58;100.00;55229.56;5033894;28;20036;-62
2021/06/22 00:57:09;;;;;;;1.05;0.70;;;;;;;-148.58;100.00;55229.56;5033801;28;20041;-62
2021/06/22 00:59:35;;;;;;;0.65;0.65;;;;;;;-148.58;100.00;55229.56;5034281;28;20380;-61
2021/06/22 01:02:02;;;;;;;0.73;0.68;;;;;;;-148.58;100.00;55229.56;5033973;28;20054;-62
2021/06/22 01:04:28;;;;;;;0.70;0.70;;;;;;;-148.58;100.00;55229.56;5034157;28;20025;-62
2021/06/22 01:06:57;;;;;;;0.90;0.82;;;;;;;-148.58;100.00;55229.56;5032815;28;20059;-62
2021/06/22 01:09:23;;;;;;;0.80;0.70;;;;;;;-148.58;100.00;55229.56;5032066;28;20033;-61
2021/06/22 01:11:48;;;;;;;1.38;0.88;;;;;;;-148.58;100.00;55229.56;5033502;28;20025;-62
2021/06/22 01:14:13;;;;;;;0.88;0.68;;;;;;;-148.58;100.00;55229.56;5034082;28;20033;-61
2021/06/22 01:16:39;;;;;;;0.70;0.60;;;;;;;-148.58;100.00;55229.56;5034031;28;20056;-61
2021/06/22 01:19:07;;;;;;;0.88;0.70;;;;;;;-148.58;100.00;55229.56;5033747;28;20017;-61
2021/06/22 01:21:33;;;;;;;1.30;1.08;;;;;;;-148.58;100.00;55229.56;5033957;28;20022;-62
2021/06/22 01:24:10;;;;;;;0.75;0.70;;;;;;;-148.58;100.00;55229.56;5033740;28;20100;-62
2021/06/22 01:26:37;;;;;;;0.70;0.70;;;;;;;-148.58;100.00;55229.56;5033756;28;20088;-62
2021/06/22 01:29:05;;;;;;;0.90;0.75;;;;;;;-148.58;100.00;55229.56;5033810;28;20443;-62
2021/06/22 01:31:30;;;;;;;0.80;0.80;;;;;;;-148.58;100.00;55229.56;5033731;28;20036;-62
2021/06/22 01:33:56;;;;;;;0.85;0.68;;;;;;;-148.58;100.00;55229.56;5033519;28;20419;-62
2021/06/22 01:36:21;;;;;;;1.90;1.00;;;;;;;-148.58;100.00;55229.56;5033609;28;20371;-62
2021/06/22 01:38:47;;;;;;;1.00;0.90;;;;;;;-148.58;100.00;55229.56;5033353;28;20025;-62
2021/06/22 01:41:12;;;;;;;0.90;0.65;;;;;;;-148.58;100.00;55229.56;5028593;28;20396;-63
2021/06/22 01:43:37;;;;;;;0.52;0.50;;;;;;;-148.58;100.00;55229.56;5030771;28;20021;-62
2021/06/22 01:46:04;;;;;;;0.43;0.43;;;;;;;-148.58;100.00;55229.56;5032936;28;20079;-62
2021/06/22 01:48:30;;;;;;;2.05;0.80;;;;;;;-148.58;100.00;55229.56;5033175;28;20061;-62
2021/06/22 01:50:56;;;;;;;2.35;1.33;;;;;;;-148.58;100.00;55229.56;5033444;28;20060;-62
2021/06/22 01:53:22;;;;;;;0.70;0.63;;;;;;;-148.58;100.00;55229.56;5031914;28;20032;-62
2021/06/22 01:55:49;;;;;;;1.90;0.77;;;;;;;-148.58;100.00;55229.56;5033114;28;20026;-62
2021/06/22 01:58:16;;;;;;;0.60;0.60;;;;;;;-148.58;100.00;55229.56;5033071;28;20108;-62
2021/06/22 02:00:44;;;;;;;2.55;1.45;;;;;;;-148.58;100.00;55229.56;5032901;28;20037;-62
2021/06/22 02:03:15;;;;;;;0.98;0.98;;;;;;;-148.58;100.00;55229.56;5032901;28;20146;-62
2021/06/22 02:05:40;;;;;;;1.17;0.70;;;;;;;-148.58;100.00;55229.56;5032958;28;20112;-63
2021/06/22 02:08:06;;;;;;;1.35;0.70;;;;;;;-148.58;100.00;55229.56;5032082;28;20065;-63
2021/06/22 02:10:31;;;;;;;2.40;0.70;;;;;;;-148.58;100.00;55229.56;5032911;28;20052;-62
2021/06/22 02:12:57;;;;;;;1.80;0.93;;;;;;;-148.58;100.00;55229.56;5031439;28;20069;-62
2021/06/22 02:15:22;;;;;;;0.60;0.60;;;;;;;-148.58;100.00;55229.56;5033663;28;20360;-62
2021/06/22 02:17:47;;;;;;;1.52;0.90;;;;;;;-148.58;100.00;55229.56;5033612;28;20021;-62
2021/06/22 02:20:14;;;;;;;0.88;0.70;;;;;;;-148.58;100.00;55229.56;5030805;28;20021;-62
2021/06/22 02:22:39;;;;;;;1.08;0.73;;;;;;;-148.58;100.00;55229.56;5032625;28;20068;-62
2021/06/22 02:25:07;;;;;;;1.20;0.65;;;;;;;-148.58;100.00;55229.56;5032491;28;20060;-62
2021/06/22 02:27:33;;;;;;;1.08;0.60;;;;;;;-148.58;100.00;55229.56;5032822;28;20028;-62
2021/06/22 02:29:59;;;;;;;0.50;0.50;;;;;;;-148.58;100.00;55229.56;5032842;28;20345;-62
2021/06/22 02:32:25;;;;;;;0.60;0.60;;;;;;;-148.58;100.00;55229.56;5032986;28;20021;-62
2021/06/22 02:34:51;;;;;;;0.85;0.60;;;;;;;-148.58;100.00;55229.56;5032401;28;20056;-62
2021/06/22 02:37:17;;;;;;;0.90;0.60;;;;;;;-148.58;100.00;55229.56;5032750;28;20427;-62
2021/06/22 02:39:43;;;;;;;0.50;0.50;;;;;;;-148.58;100.00;55229.56;5032575;28;20037;-62
2021/06/22 02:42:09;;;;;;;1.15;0.60;;;;;;;-148.58;100.00;55229.56;5032539;28;20071;-62
2021/06/22 02:44:34;;;;;;;0.70;0.63;;;;;;;-148.58;100.00;55229.56;5032283;28;20492;-63
2021/06/22 02:46:59;;;;;;;0.85;0.57;;;;;;;-148.58;100.00;55229.56;5032445;28;20035;-62
2021/06/22 02:49:25;;;;;;;0.73;0.50;;;;;;;-148.58;100.00;55229.56;5032566;28;20075;-62
2021/06/22 02:51:50;;;;;;;0.50;0.50;;;;;;;-148.58;100.00;55229.56;5028341;28;20026;-63
2021/06/22 02:54:16;;;;;;;1.20;0.60;;;;;;;-148.58;100.00;55229.56;5031508;28;20025;-62
2021/06/22 02:56:41;;;;;;;1.10;0.57;;;;;;;-148.58;100.00;55229.56;5030207;28;20045;-62
2021/06/22 02:59:06;;;;;;;0.50;0.50;;;;;;;-148.58;100.00;55229.56;5032180;28;20049;-62
2021/06/22 03:01:31;;;;;;;0.40;0.40;;;;;;;-148.58;100.00;55229.56;5031244;28;20076;-63
2021/06/22 03:03:57;;;;;;;0.65;0.57;;;;;;;-148.58;100.00;55229.56;5030182;28;20823;-62
2021/06/22 03:06:22;;;;;;;2.17;1.05;;;;;;;-148.58;100.00;55229.56;5014446;28;20041;-62
2021/06/22 03:08:47;;;;;;;0.95;0.50;;;;;;;-148.58;100.00;55229.56;5031977;28;20380;-62
2021/06/22 03:11:13;;;;;;;1.73;0.60;;;;;;;-148.58;100.00;55229.56;5031051;28;20032;-63
2021/06/22 03:13:38;;;;;;;0.85;0.63;;;;;;;-148.58;100.00;55229.56;5032299;28;20021;-62
2021/06/22 03:16:04;;;;;;;0.82;0.80;;;;;;;-148.58;100.00;55229.56;5032049;28;20017;-63
2021/06/22 03:18:29;;;;;;;0.40;0.40;;;;;;;-148.58;100.00;55229.56;5031688;28;20021;-62
2021/06/22 03:20:54;;;;;;;1.05;0.60;;;;;;;-148.58;100.00;55229.56;5036058;28;20104;-63
2021/06/22 03:23:19;;;;;;;0.70;0.50;;;;;;;-148.58;100.00;55229.56;5036123;28;20033;-62
2021/06/22 03:25:45;;;;;;;1.42;0.60;;;;;;;-148.58;100.00;55229.56;5034867;28;20061;-62
2021/06/22 03:28:10;;;;;;;0.73;0.30;;;;;;;-148.58;100.00;55229.56;5036833;28;20108;-62
2021/06/22 03:30:35;;;;;;;0.98;0.30;;;;;;;-148.58;100.00;55229.56;5017648;28;20026;-62
2021/06/22 03:33:01;;;;;;;0.30;0.20;;;;;;;-148.58;100.00;55229.56;5033704;28;20027;-62
2021/06/22 03:35:28;;;;;;;0.17;0.17;;;;;;;-148.58;100.00;55229.56;5035793;28;20017;-62
2021/06/22 03:37:53;;;;;;;0.38;0.38;;;;;;;-148.58;100.00;55229.56;5035802;28;20021;-62
2021/06/22 03:40:21;;;;;;;0.30;0.28;;;;;;;-148.58;100.00;55229.56;5035890;28;20112;-64
2021/06/22 03:42:47;;;;;;;0.50;0.30;;;;;;;-148.58;100.00;55229.56;5035729;28;20120;-62
2021/06/22 03:45:14;;;;;;;0.20;0.20;;;;;;;-148.58;100.00;55229.56;5035702;28;20032;-62
2021/06/22 03:47:40;;;;;;;0.30;0.30;;;;;;;-148.58;100.00;55229.56;5035498;28;20052;-62
2021/06/22 03:50:07;;;;;;;0.60;0.28;;;;;;;-148.58;100.00;55229.56;5035594;28;20404;-63
2021/06/22 03:52:32;;;;;;;0.20;0.20;;;;;;;-148.58;100.00;55229.56;5035007;28;20074;-62
2021/06/22 03:54:57;;;;;;;0.20;0.20;;;;;;;-148.58;100.00;55229.56;5032929;28;20096;-62
2021/06/22 03:57:23;;;;;;;0.95;0.30;;;;;;;-148.58;100.00;55229.56;5035237;28;20116;-62
2021/06/22 03:59:50;;;;;;;0.47;0.30;;;;;;;-148.58;100.00;55229.56;5035315;28;20052;-62
2021/06/22 04:02:15;;;;;;;0.50;0.20;;;;;;;-148.58;100.00;55229.56;5035265;28;20496;-62
2021/06/22 04:04:40;;;;;;;0.30;0.20;;;;;;;-148.58;100.00;55229.56;5035342;28;20116;-62
2021/06/22 04:07:06;;;;;;;1.65;0.43;;;;;;;-148.58;100.00;55229.56;5035811;28;20013;-62
2021/06/22 04:09:31;;;;;;;0.47;0.20;;;;;;;-148.58;100.00;55229.56;5035303;28;20635;-62
2021/06/22 04:11:57;;;;;;;0.80;0.20;;;;;;;-148.58;100.00;55229.56;5035057;28;20017;-62
2021/06/22 04:14:22;;;;;;;0.63;0.30;;;;;;;-148.58;100.00;55229.56;5034498;28;20376;-62
2021/06/22 04:16:48;;;;;;;0.50;0.40;;;;;;;-148.58;100.00;55229.56;5035808;28;20376;-62
2021/06/22 04:19:13;;;;;;;0.20;0.20;;;;;;;-148.58;100.00;55229.56;5036292;28;20037;-63
2021/06/22 04:21:39;;;;;;;0.30;0.20;;;;;;;-148.58;100.00;55229.56;5036026;28;20109;-62
2021/06/22 04:24:05;;;;;;;0.52;0.20;;;;;;;-148.58;100.00;55229.56;5035833;28;20530;-62
2021/06/22 04:26:31;;;;;;;0.45;0.30;;;;;;;-148.58;100.00;55229.56;5035943;28;20025;-62
2021/06/22 04:28:56;;;;;;;2.25;0.30;;;;;;;-148.58;100.00;55229.56;5035686;28;20037;-63
2021/06/22 04:31:21;;;;;;;0.52;0.17;;;;;;;-148.58;100.00;55229.56;5030898;28;20022;-63
2021/06/22 04:33:47;;;;;;;1.00;0.20;;;;;;;-148.58;100.00;55229.56;5034808;28;20025;-62
2021/06/22 04:36:12;;;;;;;1.40;0.50;;;;;;;-148.58;100.00;55229.56;5033474;28;20064;-62
2021/06/22 04:38:37;;;;;;;0.20;0.20;;;;;;;-148.58;100.00;55229.56;5032675;28;20029;-62
2021/06/22 04:41:03;;;;;;;0.40;0.30;;;;;;;-148.58;100.00;55229.56;5034549;28;20033;-63
2021/06/22 04:43:28;;;;;;;0.47;0.25;;;;;;;-148.58;100.00;55229.56;5034825;28;20049;-63
2021/06/22 04:45:54;;;;;;;0.10;0.10;;;;;;;-148.58;100.00;55229.56;5034204;28;20043;-62
2021/06/22 04:48:19;;;;;;;0.70;0.32;;;;;;;-148.58;100.00;55229.56;5034548;28;20067;-62
2021/06/22 04:50:44;;;;;;;0.85;0.28;;;;;;;-148.58;100.00;55229.56;5034374;28;20025;-62
2021/06/22 04:53:10;;;;;;;0.25;0.20;;;;;;;-148.58;100.00;55229.56;5034462;28;20104;-63
2021/06/22 04:55:35;;;;;;;0.35;0.10;;;;;;;-148.58;100.00;55229.56;5034444;28;20099;-63
2021/06/22 04:58:00;;;;;;;0.40;0.15;;;;;;;-148.58;100.00;55229.56;5034166;28;20101;-63
2021/06/22 05:00:27;;;;;;;0.63;0.20;;;;;;;-148.58;100.00;55229.56;5034448;28;20469;-62
2021/06/22 05:02:53;;;;;;;0.80;0.25;;;;;;;-148.58;100.00;55229.56;5033965;28;20045;-62
2021/06/22 05:05:18;;;;;;;0.20;0.10;;;;;;;-148.58;100.00;55229.56;5034199;28;20044;-62
2021/06/22 05:07:43;;;;;;;0.15;0.10;;;;;;;-148.58;100.00;55229.56;5033033;28;20048;-63
2021/06/22 05:10:10;;;;;;;1.08;0.28;;;;;;;-148.58;100.00;55229.56;5032365;28;20390;-61
2021/06/22 05:12:35;;;;;;;0.22;0.10;;;;;;;-148.58;100.00;55229.56;5033874;28;20056;-62
2021/06/22 05:15:01;;;;;;;0.20;0.10;;;;;;;-148.58;100.00;55229.56;5033685;28;20421;-63
2021/06/22 05:17:26;;;;;;;1.20;0.20;;;;;;;-148.58;100.00;55229.56;5034088;28;20536;-64
2021/06/22 05:19:52;;;;;;;0.50;0.10;;;;;;;-148.58;100.00;55229.56;5034023;28;20465;-63
2021/06/22 05:22:17;;;;;;;0.10;0.10;;;;;;;-148.58;100.00;55229.56;5033189;28;20033;-63
2021/06/22 05:24:43;;;;;;;0.70;0.20;;;;;;;-148.58;100.00;55229.56;5033456;28;20412;-64
2021/06/22 05:27:09;;;;;;;1.33;0.30;;;;;;;-148.58;100.00;55229.56;5030810;28;20432;-63
2021/06/22 05:29:34;;;;;;;1.13;0.30;;;;;;;-148.58;100.00;55229.56;5033704;28;20350;-63
2021/06/22 05:31:59;;;;;;;0.25;0.20;;;;;;;-148.58;100.00;55229.56;5028358;28;20121;-63
2021/06/22 05:34:25;;;;;;;0.70;0.40;;;;;;;-148.58;100.00;55229.56;5022838;28;20041;-63
2021/06/22 05:36:50;;;;;;;1.00;0.43;;;;;;;-148.58;100.00;55229.56;5032434;28;20057;-65
2021/06/22 05:39:15;;;;;;;2.05;0.30;;;;;;;-148.58;100.00;55229.56;5032972;28;20033;-64
2021/06/22 05:41:41;;;;;;;1.75;0.25;;;;;;;-148.58;100.00;55229.56;5031705;28;20031;-64
2021/06/22 05:44:07;;;;;;;1.13;0.25;;;;;;;-148.58;100.00;55229.56;5033546;28;20025;-64
2021/06/22 05:46:33;;;;;;;0.60;0.25;;;;;;;-148.58;100.00;55229.56;5034070;28;20468;-65
2021/06/22 05:48:58;;;;;;;0.80;0.28;;;;;;;-148.58;100.00;55229.56;5032639;28;20025;-62
2021/06/22 05:51:24;;;;;;;3.70;0.50;;;;;;;-148.58;100.00;55229.56;5030842;28;20055;-62
2021/06/22 05:53:50;;;;;;;2.72;0.35;;;;;;;-148.58;100.00;55229.56;5032352;28;20472;-63
2021/06/22 05:56:15;;;;;;;0.43;0.20;;;;;;;-148.58;100.00;55229.56;5030604;28;20071;-62
2021/06/22 05:58:41;;;;;;;0.28;0.28;;;;;;;-148.58;100.00;55229.56;5033156;28;20025;-62
2021/06/22 06:01:06;;;;;;;0.70;0.20;;;;;;;-148.58;100.00;55229.56;5031337;28;20083;-61
2021/06/22 06:03:31;;;;;;;1.58;0.28;;;;;;;-148.58;100.00;55229.56;5032295;28;20052;-62
2021/06/22 06:05:56;;;;;;;0.55;0.30;;;;;;;-148.58;100.00;55229.56;5032536;28;20105;-62
2021/06/22 06:08:22;;;;;;;1.02;0.30;;;;;;;-148.58;100.00;55229.56;5031423;28;20029;-61
2021/06/22 06:10:47;;;;;;;0.35;0.20;;;;;;;-148.58;100.00;55229.56;5032530;28;20033;-61
2021/06/22 06:13:12;;;;;;;0.80;0.40;;;;;;;-148.58;100.00;55229.56;5032933;28;20083;-62
2021/06/22 06:15:38;;;;;;;1.15;0.30;;;;;;;-148.58;100.00;55229.56;5033092;28;20029;-62
2021/06/22 06:18:04;;;;;;;1.00;0.30;;;;;;;-148.58;100.00;55229.56;5032728;28;20040;-61
2021/06/22 06:20:29;;;;;;;0.20;0.15;;;;;;;-148.58;100.00;55229.56;5032022;28;20032;-61
2021/06/22 06:22:55;;;;;;;0.40;0.20;;;;;;;-148.58;100.00;55229.56;5032574;28;20419;-61
2021/06/22 06:25:21;;;;;;;1.15;0.47;;;;;;;-148.58;100.00;55229.56;5028888;28;20496;-61
2021/06/22 06:27:53;;;;;;;0.65;0.32;;;;;;;-148.58;100.00;55229.56;5029935;28;20033;-61
2021/06/22 06:30:23;;;;;;;1.23;0.40;;;;;;;-148.58;100.00;55229.56;5032652;28;20036;-61
2021/06/22 06:32:49;;;;;;;0.63;0.20;;;;;;;-148.58;100.00;55229.56;5020691;28;20041;-61
2021/06/22 06:35:17;;;;;;;0.60;0.22;;;;;;;-148.58;100.00;55229.56;5027097;28;20025;-61
2021/06/22 06:37:42;;;;;;;0.40;0.30;;;;;;;-148.58;100.00;55229.56;5029182;28;20044;-63
2021/06/22 06:40:09;;;;;;;0.65;0.40;;;;;;;-148.58;100.00;55229.56;5028551;28;20033;-60
2021/06/22 06:42:35;;;;;;;1.73;0.20;;;;;;;-148.58;100.00;55229.56;5027744;28;20040;-61
2021/06/22 06:45:00;;;;;;;1.40;0.38;;;;;;;-148.58;100.00;55229.56;5036521;28;20029;-61
2021/06/22 06:47:25;;;;;;;1.00;0.30;;;;;;;-148.58;100.00;55229.56;5023179;28;20056;-61
2021/06/22 06:49:51;;;;;;;1.00;0.28;;;;;;;-148.58;100.00;55229.56;5027277;28;20108;-61
2021/06/22 06:52:16;;;;;;;1.25;0.40;;;;;;;-148.58;100.00;55229.56;5030565;28;20366;-61
2021/06/22 06:54:41;;;;;;;0.47;0.22;;;;;;;-148.58;100.00;55229.56;5035458;28;20036;-62
2021/06/22 06:57:07;;;;;;;2.78;0.38;;;;;;;-148.58;100.00;55229.56;5037926;28;20025;-61
2021/06/22 06:59:33;;;;;;;0.68;0.22;;;;;;;-148.58;100.00;55229.56;5031749;28;20029;-61
2021/06/22 07:01:58;;;;;;;0.73;0.30;;;;;;;-148.58;100.00;55229.56;5027091;28;20042;-61
2021/06/22 07:04:24;;;;;;;1.85;0.25;;;;;;;-148.58;100.00;55229.56;5026189;28;20553;-61
2021/06/22 07:06:49;;;;;;;0.63;0.32;;;;;;;-148.58;100.00;55229.56;5027332;28;20029;-62
2021/06/22 07:09:14;;;;;;;2.40;0.30;;;;;;;-148.58;100.00;55229.56;5038878;28;20030;-62
2021/06/22 07:11:40;;;;;;;1.45;0.40;;;;;;;-148.58;100.00;55229.56;5035985;28;20112;-62
2021/06/22 07:14:05;;;;;;;0.55;0.40;;;;;;;-148.58;100.00;55229.56;5036710;28;20452;-62
2021/06/22 07:16:31;;;;;;;0.60;0.10;;;;;;;-148.58;100.00;55229.56;5035381;28;20376;-63
2021/06/22 07:18:56;;;;;;;1.80;0.70;;;;;;;-148.58;100.00;55229.56;5033953;28;20047;-61
2021/06/22 07:21:22;;;;;;;1.27;0.22;;;;;;;-148.58;100.00;55229.56;5041511;28;20040;-62
2021/06/22 07:23:47;;;;;;;0.73;0.20;;;;;;;-148.58;100.00;55229.56;5038100;28;20025;-63
2021/06/22 07:26:13;;;;;;;1.45;0.47;;;;;;;-148.58;100.00;55229.56;5037979;28;20115;-62
2021/06/22 07:28:39;;;;;;;0.35;0.20;;;;;;;-148.58;100.00;55229.56;5024607;28;20034;-62
2021/06/22 07:31:07;;;;;;;0.75;0.30;;;;;;;-148.58;100.00;55229.56;5035046;28;20033;-61
2021/06/22 07:33:32;;;;;;;1.40;0.40;;;;;;;-148.58;100.00;55229.56;5031482;28;20068;-61
2021/06/22 07:35:58;;;;;;;1.42;0.30;;;;;;;-148.58;100.00;55229.56;5020226;28;20034;-62
2021/06/22 07:38:23;;;;;;;1.98;0.30;;;;;;;-148.58;100.00;55229.56;5037482;28;20025;-61
2021/06/22 07:40:49;;;;;;;2.15;0.70;;;;;;;-148.58;100.00;55229.56;5035494;28;20041;-61
2021/06/22 07:43:15;;;;;;;3.05;0.70;;;;;;;-148.58;100.00;55229.56;5026361;28;20030;-61
2021/06/22 07:45:41;;;;;;;1.23;0.47;;;;;;;-148.58;100.00;55229.56;5036869;28;20021;-62
2021/06/22 07:48:07;;;;;;;1.17;0.40;;;;;;;-148.58;100.00;55229.56;5035836;28;20436;-61
2021/06/22 07:50:32;;;;;;;0.73;0.55;;;;;;;-148.58;100.00;55229.56;5037900;28;20101;-61
2021/06/22 07:53:01;;;;;;;2.80;0.40;;;;;;;-148.58;100.00;55229.56;5027015;28;20109;-61
2021/06/22 07:55:26;;;;;;;1.35;0.50;;;;;;;-148.58;100.00;55229.56;5036808;28;20244;-61
2021/06/22 07:57:51;;;;;;;0.40;0.35;;;;;;;-148.58;100.00;55229.56;5038183;28;20083;-61
2021/06/22 08:00:46;;;;;;;1.67;0.70;;;;;;;-148.58;100.00;55229.56;5031883;28;20037;-61
2021/06/22 08:03:20;;;;;;;1.38;0.80;;;;;;;-148.58;100.00;55229.56;5029378;28;20052;-61
2021/06/22 08:05:48;;;;;;;4.10;0.88;;;;;;;-148.58;100.00;55229.56;5033729;28;20104;-60
2021/06/22 08:08:16;;;;;;;2.33;1.02;;;;;;;-148.58;100.00;55229.56;5035146;28;20022;-61
2021/06/22 08:10:42;;;;;;;4.47;0.60;;;;;;;-148.58;100.00;55229.56;5032172;28;20024;-61
2021/06/22 08:13:08;;;;;;;1.60;0.63;;;;;;;-148.58;100.00;55229.56;5028814;28;20608;-61
2021/06/22 08:15:35;;;;;;;1.58;0.60;;;;;;;-148.58;100.00;55229.56;5030677;28;20421;-61
2021/06/22 08:18:00;;;;;;;0.70;0.30;;;;;;;-148.58;100.00;55229.56;5026014;28;20358;-61
2021/06/22 08:20:26;;;;;;;2.08;0.60;;;;;;;-148.58;100.00;55229.56;5032759;28;20041;-60
2021/06/22 08:22:53;;;;;;;5.57;0.75;;;;;;;-148.58;100.00;55229.56;5026066;28;20072;-59
2021/06/22 08:25:20;;;;;;;2.80;1.02;;;;;;;-148.58;100.00;55229.56;5024635;28;20033;-59
2021/06/22 08:27:47;;;;;;;2.03;0.77;;;;;;;-148.58;100.00;55229.56;5033202;28;20022;-59
2021/06/22 08:30:12;;;;;;;1.88;0.75;;;;;;;-148.58;100.00;55229.56;5028609;28;20052;-59
2021/06/22 08:32:37;;;;;;;1.25;0.50;;;;;;;-148.58;100.00;55229.56;5029262;28;20425;-59
2021/06/22 08:35:03;;;;;;;0.60;0.40;;;;;;;-148.58;100.00;55229.56;5024360;28;20037;-62
2021/06/22 08:37:29;;;;;;;2.47;0.50;;;;;;;-148.58;100.00;55229.56;5040758;28;20025;-62
2021/06/22 08:39:54;;;;;;;1.45;0.50;;;;;;;-148.58;100.00;55229.56;5037900;28;20018;-62
2021/06/22 08:42:22;;;;;;;1.30;0.40;;;;;;;-148.58;100.00;55229.56;5037166;28;20033;-62
2021/06/22 08:44:49;;;;;;;0.30;0.25;;;;;;;-148.58;100.00;55229.56;5026841;28;20112;-62
2021/06/22 08:47:20;;;;;;;0.93;0.40;;;;;;;-148.58;100.00;55229.56;5038202;28;20049;-62
2021/06/22 08:49:46;;;;;;;1.40;0.35;;;;;;;-148.58;100.00;55229.56;5028410;28;20048;-62
2021/06/22 08:52:12;;;;;;;0.50;0.20;;;;;;;-148.58;100.00;55229.56;5031559;28;20025;-62
2021/06/22 08:54:38;;;;;;;1.15;0.40;;;;;;;-148.58;100.00;55229.56;5029594;28;20029;-62
2021/06/22 08:57:04;;;;;;;0.63;0.20;;;;;;;-148.58;100.00;55229.56;5029551;28;20037;-62
2021/06/22 08:59:29;;;;;;;0.63;0.40;;;;;;;-148.58;100.00;55229.56;5030107;28;20037;-62
2021/06/22 09:01:55;;;;;;;0.95;0.30;;;;;;;-148.58;100.00;55229.56;5032538;28;20109;-62
2021/06/22 09:04:20;;;;;;;0.60;0.40;;;;;;;-148.58;100.00;55229.56;5035161;28;20037;-62
2021/06/22 09:06:45;;;;;;;0.60;0.30;;;;;;;-148.58;100.00;55229.56;5027285;28;20021;-59
2021/06/22 09:09:11;;;;;;;1.20;0.55;;;;;;;-148.58;100.00;55229.56;5020663;28;20021;-61
2021/06/22 09:11:38;;;;;;;1.73;0.73;;;;;;;-148.58;100.00;55229.56;5026346;28;20399;-63
2021/06/22 09:14:05;;;;;;;1.25;0.63;;;;;;;-148.58;100.00;55229.56;5025347;28;20036;-62
2021/06/22 09:16:32;;;;;;;2.33;0.60;;;;;;;-148.58;100.00;55229.56;5023058;28;20120;-63
2021/06/22 09:19:07;;;;;;;1.85;0.63;;;;;;;-148.58;100.00;55229.56;5021766;28;20033;-63
2021/06/22 09:21:44;;;;;;;2.17;0.80;;;;;;;-148.58;100.00;55229.56;5023633;28;20040;-63
2021/06/22 09:24:21;;;;;;;1.60;0.50;;;;;;;-148.58;100.00;55229.56;5028745;28;20040;-64
2021/06/22 09:26:50;;;;;;;2.58;0.50;;;;;;;-148.58;100.00;55229.56;5026580;28;20022;-64
2021/06/22 09:29:20;;;;;;;1.17;0.50;;;;;;;-148.58;100.00;55229.56;5026023;28;20033;-62
2021/06/22 09:31:59;;;;;;;1.15;0.30;;;;;;;-148.58;100.00;55229.56;5029355;28;20041;-63
2021/06/22 09:34:26;;;;;;;1.85;0.40;;;;;;;-148.58;100.00;55229.56;5027200;28;20029;-61
2021/06/22 09:36:54;;;;;;;0.70;0.30;;;;;;;-148.58;100.00;55229.56;5029139;28;20043;-63
2021/06/22 09:39:21;;;;;;;1.35;0.82;;;;;;;-148.58;100.00;55229.56;5032744;28;20033;-64
2021/06/22 09:41:48;;;;;;;1.25;0.43;;;;;;;-148.58;100.00;55229.56;5030486;28;20033;-63
2021/06/22 09:44:16;;;;;;;0.30;0.22;;;;;;;-148.58;100.00;55229.56;5030608;28;20028;-64
2021/06/22 09:46:51;;;;;;;0.30;0.30;;;;;;;-148.58;100.00;55229.56;5021960;28;20479;-63
2021/06/22 09:49:17;;;;;;;0.85;0.32;;;;;;;-148.58;100.00;55229.56;5029205;28;20075;-63
2021/06/22 09:51:52;;;;;;;1.17;0.40;;;;;;;-148.58;100.00;55229.56;5012515;28;20037;-62
2021/06/22 09:54:20;;;;;;;1.00;0.30;;;;;;;-148.58;100.00;55229.56;5030090;28;20036;-63
2021/06/22 09:57:01;;;;;;;2.45;0.43;;;;;;;-148.58;100.00;55229.56;5012710;28;20468;-62
2021/06/22 09:59:29;;;;;;;0.75;0.30;;;;;;;-148.58;100.00;55229.56;5028450;28;20029;-62
2021/06/22 10:02:03;;;;;;;2.63;0.68;;;;;;;-148.58;100.00;55229.56;5018645;28;20037;-62
2021/06/22 10:04:29;;;;;;;2.13;0.25;;;;;;;-148.58;100.00;55229.56;5029841;28;20053;-62
2021/06/22 10:06:57;;;;;;;1.15;0.60;;;;;;;-148.58;100.00;55229.56;5029185;28;20052;-62
2021/06/22 10:09:28;;;;;;;1.73;0.68;;;;;;;-148.58;100.00;55229.56;5029678;28;20590;-62
2021/06/22 10:12:06;;;;;;;1.33;0.43;;;;;;;-148.58;100.00;55229.56;5030220;28;20108;-62
2021/06/22 10:14:35;;;;;;;3.33;0.38;;;;;;;-148.58;100.00;55229.56;5030937;28;20403;-63
2021/06/22 10:17:22;;;;;;;2.75;0.50;;;;;;;-148.58;100.00;55229.56;5029692;28;20112;-62
2021/06/22 10:19:51;;;;;;;2.28;0.50;;;;;;;-148.58;100.00;55229.56;5030308;28;20014;-63
2021/06/22 10:22:20;;;;;;;1.27;0.40;;;;;;;-148.58;100.00;55229.56;5029254;28;20026;-60
2021/06/22 10:24:46;;;;;;;0.73;0.30;;;;;;;-148.58;100.00;55229.56;5031429;28;20036;-62
2021/06/22 10:27:17;;;;;;;0.88;0.47;;;;;;;-148.58;100.00;55229.56;5032041;28;20025;-60
2021/06/22 10:29:45;;;;;;;0.75;0.40;;;;;;;-148.58;100.00;55229.56;5032314;28;20510;-61
2021/06/22 10:32:11;;;;;;;0.85;0.40;;;;;;;-148.58;100.00;55229.56;5031608;28;20040;-62
2021/06/22 10:34:37;;;;;;;1.48;0.30;;;;;;;-148.58;100.00;55229.56;5030887;28;20017;-62
2021/06/22 10:37:08;;;;;;;0.75;0.30;;;;;;;-148.58;100.00;55229.56;5030073;28;20066;-62
2021/06/22 10:39:35;;;;;;;0.60;0.28;;;;;;;-148.58;100.00;55229.56;5032520;28;20460;-62
2021/06/22 10:42:13;;;;;;;1.02;0.30;;;;;;;-148.58;100.00;55229.56;5032293;28;20045;-62
2021/06/22 10:44:42;;;;;;;0.73;0.40;;;;;;;-148.58;100.00;55229.56;5032738;28;20025;-62
2021/06/22 10:47:18;;;;;;;0.55;0.55;;;;;;;-148.58;100.00;55229.56;5032667;28;20017;-62
2021/06/22 10:50:02;;;;;;;2.97;0.60;;;;;;;-148.58;100.00;55229.56;5032474;28;20613;-62
2021/06/22 10:52:43;;;;;;;0.60;0.22;;;;;;;-148.58;100.00;55229.56;5032679;28;20026;-62
2021/06/22 10:55:20;;;;;;;1.08;0.47;;;;;;;-148.58;100.00;55229.56;5031974;28;20018;-62
2021/06/22 10:58:04;;;;;;;0.98;0.30;;;;;;;-148.58;100.00;55229.56;5032284;28;20026;-62
2021/06/22 11:00:31;;;;;;;;;;;;;;;-148.58;100.00;55229.56;5032936;28;20112;-63
2021/06/22 11:03:04;;;;;;;0.55;0.30;;;;;;;-148.58;100.00;55229.56;5032029;28;19921;-62
2021/06/22 11:05:31;;;;;;;0.40;0.20;;;;;;;-148.58;100.00;55229.56;5031178;28;20037;-62
2021/06/22 11:08:09;;;;;;;1.65;0.55;;;;;;;-148.58;100.00;55229.56;5028127;28;20104;-62